M I D A S
Marine Information and Data Acquisition System
Tripno 1830 of the Zeeleeuw from 2009-12-09 07:18:40 to 2009-12-09 15:15:33
Back to CruiseResearch ActivitiesStationsMapUnderway DataData graphs

EquipmentUnitsComment
TimeDGPSUTC
LatitudeDGPSDM.mWGS84
LongitudeDGPSDM.mWGS84
HeadingGyrodeg 
SOGDGPSknotsSpeed over ground
COGDGPSdegCourse over ground
DepthEcho soundermeters200 kHz
Missing or incorrect values are displayed as -999
Navigation data collected by the RV Zeeleeuw from 2009-12-09 07:27:41 to 2009-12-09 17:35:34
                                                                                    Next 1000 lines
Time Latitude Longitude Heading SOG COG Depth
2009-12-09 07:27:51 51°13.661 2°55.956 108.2 0.7 295 9.2
2009-12-09 07:27:56 51°13.662 2°55.954 108 0.9 295 9.2
2009-12-09 07:28:01 51°13.663 2°55.952 108 1.2 294 9.2
2009-12-09 07:28:06 51°13.665 2°55.949 108 1.5 297 9.2
2009-12-09 07:28:11 51°13.666 2°55.945 108.2 1.9 292 9.3
2009-12-09 07:28:17 51°13.668 2°55.94 108 2.3 297 -999
2009-12-09 07:28:22 51°13.669 2°55.934 107.6 2.6 291 -999
2009-12-09 07:28:28 51°13.671 2°55.927 106.9 2.9 293 -999
2009-12-09 07:28:34 51°13.672 2°55.92 106.3 3 290 -999
2009-12-09 07:28:40 51°13.674 2°55.912 105.9 3.1 290 -999
2009-12-09 07:28:45 51°13.676 2°55.905 105.3 3.2 288 -999
2009-12-09 07:28:50 51°13.677 2°55.898 105.1 3.3 290 -999
2009-12-09 07:28:55 51°13.679 2°55.891 105.3 3.5 289 -999
2009-12-09 07:29:00 51°13.68 2°55.884 106.3 3.4 289 -999
2009-12-09 07:29:05 51°13.682 2°55.877 107.4 3.3 289 -999
2009-12-09 07:29:10 51°13.683 2°55.869 108.5 3.4 289 -999
2009-12-09 07:29:15 51°13.684 2°55.862 109.4 3.5 291 -999
2009-12-09 07:29:20 51°13.686 2°55.854 110.3 3.6 291 -999
2009-12-09 07:29:25 51°13.688 2°55.847 111.4 3.6 293 -999
2009-12-09 07:29:30 51°13.69 2°55.839 112.6 3.7 294 -999
2009-12-09 07:29:35 51°13.692 2°55.832 114 3.8 295 -999
2009-12-09 07:29:40 51°13.695 2°55.824 115.4 3.8 296 -999
2009-12-09 07:29:45 51°13.697 2°55.817 116.8 3.9 298 -999
2009-12-09 07:29:50 51°13.7 2°55.81 118.2 3.9 300 -999
2009-12-09 07:29:55 51°13.703 2°55.802 119.5 4 302 -999
2009-12-09 07:30:00 51°13.706 2°55.794 120.9 4 302 -999
2009-12-09 07:30:05 51°13.709 2°55.787 122.2 4.1 304 -999
2009-12-09 07:30:10 51°13.712 2°55.78 123.1 4.1 305 -999
2009-12-09 07:30:15 51°13.716 2°55.773 123.7 4 306 -999
2009-12-09 07:30:20 51°13.719 2°55.765 124.2 4 306 -999
2009-12-09 07:30:25 51°13.722 2°55.759 124.9 3.8 307 -999
2009-12-09 07:30:30 51°13.725 2°55.752 125.8 3.6 309 -999
2009-12-09 07:30:35 51°13.726 2°55.746 127.2 3.5 310 -999
2009-12-09 07:30:40 51°13.728 2°55.74 128.6 3.4 311 -999
2009-12-09 07:30:45 51°13.731 2°55.735 129.9 3.3 312 -999
2009-12-09 07:30:50 51°13.734 2°55.729 130.7 3.4 312 -999
2009-12-09 07:30:55 51°13.737 2°55.724 131.4 3.4 314 -999
2009-12-09 07:31:00 51°13.741 2°55.718 132.3 3.5 313 -999
2009-12-09 07:31:05 51°13.745 2°55.713 133.3 3.4 315 -999
2009-12-09 07:31:10 51°13.75 2°55.708 134.1 3.4 313 -999
2009-12-09 07:31:15 51°13.754 2°55.704 134.8 3.3 315 -999
2009-12-09 07:31:20 51°13.757 2°55.698 135.7 3.4 314 -999
2009-12-09 07:31:25 51°13.761 2°55.694 136.9 3.4 316 -999
2009-12-09 07:31:30 51°13.764 2°55.688 138.5 3.5 317 -999
2009-12-09 07:31:35 51°13.768 2°55.683 140.8 3.6 320 -999
2009-12-09 07:31:40 51°13.772 2°55.678 143.6 3.6 321 -999
2009-12-09 07:31:45 51°13.776 2°55.674 145.8 3.7 323 -999
2009-12-09 07:31:50 51°13.781 2°55.669 147.8 3.7 327 -999
2009-12-09 07:31:55 51°13.785 2°55.664 149.8 3.8 327 -999
2009-12-09 07:32:00 51°13.789 2°55.66 151.8 3.8 330 -999
2009-12-09 07:32:04 51°13.793 2°55.656 153.6 3.8 331 -999
2009-12-09 07:32:10 51°13.799 2°55.652 155.6 3.9 335 -999
2009-12-09 07:32:15 51°13.804 2°55.649 157.7 3.9 335 -999
2009-12-09 07:32:20 51°13.809 2°55.646 159.8 4 338 -999
2009-12-09 07:32:25 51°13.815 2°55.643 161.7 4.1 340 -999
2009-12-09 07:32:30 51°13.821 2°55.64 163.6 4.2 342 -999
2009-12-09 07:32:35 51°13.826 2°55.637 165.6 4.3 344 -999
2009-12-09 07:32:40 51°13.832 2°55.635 167.6 4.4 347 -999
2009-12-09 07:32:45 51°13.839 2°55.633 169.4 4.4 349 -999
2009-12-09 07:32:50 51°13.845 2°55.631 171 4.5 350 -999
2009-12-09 07:32:55 51°13.851 2°55.63 173.2 4.6 352 -999
2009-12-09 07:32:59 51°13.856 2°55.629 175 4.6 353 -999
2009-12-09 07:33:04 51°13.863 2°55.628 176.3 4.6 356 -999
2009-12-09 07:33:10 51°13.87 2°55.627 177.9 4.4 356 -999
2009-12-09 07:33:15 51°13.876 2°55.627 181 4.3 -999 -999
2009-12-09 07:33:20 51°13.881 2°55.628 184 4.1 1 -999
2009-12-09 07:33:24 51°13.886 2°55.628 187.1 3.9 5 -999
2009-12-09 07:33:30 51°13.892 2°55.629 189.5 3.7 6 -999
2009-12-09 07:33:35 51°13.897 2°55.63 193.1 3.6 9 -999
2009-12-09 07:33:39 51°13.9 2°55.632 196.1 3.4 11 -999
2009-12-09 07:33:44 51°13.905 2°55.633 198.8 3.2 12 -999
2009-12-09 07:33:50 51°13.91 2°55.635 201 3 15 -999
2009-12-09 07:33:55 51°13.913 2°55.637 204 2.9 16 -999
2009-12-09 07:33:59 51°13.916 2°55.639 206.4 2.8 19 -999
2009-12-09 07:34:05 51°13.92 2°55.641 208.8 2.7 18 12.6
2009-12-09 07:34:10 51°13.923 2°55.643 210.6 2.5 23 4.6
2009-12-09 07:34:15 51°13.926 2°55.645 212.7 2.3 21 12.2
2009-12-09 07:34:20 51°13.929 2°55.647 214.7 2.1 24 12.4
2009-12-09 07:34:24 51°13.93 2°55.648 216.7 1.7 24 12.6
2009-12-09 07:34:29 51°13.932 2°55.649 220 1.4 22 12.5
2009-12-09 07:34:34 51°13.933 2°55.65 222.4 1.1 18 12.6
2009-12-09 07:34:39 51°13.935 2°55.65 225.7 0.8 6 12.4
2009-12-09 07:34:44 51°13.935 2°55.65 229.2 0.6 349 12.2
2009-12-09 07:34:49 51°13.936 2°55.649 233.1 0.6 311 12
2009-12-09 07:34:53 51°13.936 2°55.647 237.7 0.8 294 12.4
2009-12-09 07:34:58 51°13.936 2°55.645 243 1.2 278 12.5
2009-12-09 07:35:03 51°13.936 2°55.641 248.9 1.6 274 11.9
2009-12-09 07:35:08 51°13.937 2°55.637 255.9 2 279 12.1
2009-12-09 07:35:13 51°13.937 2°55.632 263.8 2.2 282 12.9
2009-12-09 07:35:17 51°13.938 2°55.628 271.8 2.4 289 12.3
2009-12-09 07:35:22 51°13.94 2°55.622 279.2 2.6 293 12.3
2009-12-09 07:35:27 51°13.941 2°55.617 286.1 2.8 299 12.1
2009-12-09 07:35:32 51°13.944 2°55.611 292.3 3 300 12.2
2009-12-09 07:35:37 51°13.946 2°55.605 296.9 3.3 302 13.3
2009-12-09 07:35:42 51°13.949 2°55.598 300.2 3.7 305 12.5
2009-12-09 07:35:47 51°13.953 2°55.59 302.7 4.3 306 12.6
2009-12-09 07:35:51 51°13.956 2°55.584 304.6 4.7 308 12.8
2009-12-09 07:35:56 51°13.961 2°55.575 306.1 5.1 308 12.2
2009-12-09 07:36:01 51°13.966 2°55.566 307.3 5.2 310 13.3
2009-12-09 07:36:06 51°13.971 2°55.557 308.4 5.4 310 12.8
2009-12-09 07:36:11 51°13.976 2°55.547 310 5.6 313 12.8
2009-12-09 07:36:16 51°13.981 2°55.538 312.4 5.7 314 12.8
2009-12-09 07:36:21 51°13.987 2°55.53 314.9 5.8 317 12.7
2009-12-09 07:36:26 51°13.993 2°55.521 316.5 5.9 317 12.8
2009-12-09 07:36:31 51°13.999 2°55.512 318.3 6 320 12.8
2009-12-09 07:36:36 51°14.006 2°55.504 320.8 6.1 322 12.8
2009-12-09 07:36:41 51°14.013 2°55.496 322.4 6.2 323 12.6
2009-12-09 07:36:46 51°14.021 2°55.488 323.7 6.5 326 12.5
2009-12-09 07:36:51 51°14.028 2°55.48 325.2 6.7 327 12.6
2009-12-09 07:36:56 51°14.037 2°55.472 327.4 6.7 329 12.3
2009-12-09 07:37:01 51°14.045 2°55.465 328.9 6.9 330 12.3
2009-12-09 07:37:06 51°14.054 2°55.457 329 7.1 330 12.3
2009-12-09 07:37:11 51°14.062 2°55.449 329.5 7.2 331 12.1
2009-12-09 07:37:16 51°14.071 2°55.441 330.5 7.3 332 12.1
2009-12-09 07:37:21 51°14.08 2°55.434 331.7 7.4 333 12.2
2009-12-09 07:37:26 51°14.089 2°55.426 333 7.6 334 12.3
2009-12-09 07:37:31 51°14.099 2°55.419 333.9 7.8 335 12.2
2009-12-09 07:37:36 51°14.109 2°55.412 334.7 7.9 335 12.5
2009-12-09 07:37:41 51°14.119 2°55.404 335.4 8 335 12.6
2009-12-09 07:37:46 51°14.13 2°55.397 335.6 8.2 335 12.5
2009-12-09 07:37:51 51°14.14 2°55.389 334.9 8.3 334 12.6
2009-12-09 07:37:56 51°14.15 2°55.38 334.6 8.4 334 12.5
2009-12-09 07:38:01 51°14.16 2°55.371 333.3 8.5 331 12.5
2009-12-09 07:38:06 51°14.171 2°55.362 331.9 8.6 330 12.5
2009-12-09 07:38:11 51°14.181 2°55.352 330.4 8.7 328 12.5
2009-12-09 07:38:16 51°14.191 2°55.341 328.2 8.7 326 12.4
2009-12-09 07:38:21 51°14.202 2°55.33 325.9 8.8 325 12.1
2009-12-09 07:38:25 51°14.209 2°55.32 324.1 8.9 323 12.4
2009-12-09 07:38:31 51°14.221 2°55.306 323.4 9 323 12.4
2009-12-09 07:38:36 51°14.231 2°55.293 321.6 9.2 319 12.3
2009-12-09 07:38:41 51°14.24 2°55.279 319.1 9.3 317 12.3
2009-12-09 07:38:46 51°14.25 2°55.265 317.9 9.5 317 12.3
2009-12-09 07:38:51 51°14.259 2°55.249 315.3 9.7 313 12.3
2009-12-09 07:38:56 51°14.268 2°55.233 312.8 9.8 311 12.4
2009-12-09 07:39:01 51°14.277 2°55.216 311.2 9.9 311 12.3
2009-12-09 07:39:06 51°14.286 2°55.198 308.9 10.2 308 12.3
2009-12-09 07:39:11 51°14.295 2°55.18 308.6 10.4 310 11.9
2009-12-09 07:39:16 51°14.305 2°55.162 309.4 10.6 309 11.9
2009-12-09 07:39:21 51°14.314 2°55.143 308.7 10.8 308 12.2
2009-12-09 07:39:26 51°14.324 2°55.124 307.9 11 309 12.2
2009-12-09 07:39:31 51°14.334 2°55.106 308.6 11.2 310 12.2
2009-12-09 07:39:36 51°14.344 2°55.086 309.9 11.3 310 12.2
2009-12-09 07:39:41 51°14.355 2°55.068 310.4 11.3 311 12.2
2009-12-09 07:39:45 51°14.362 2°55.052 309.7 11.3 310 11.9
2009-12-09 07:39:51 51°14.375 2°55.031 311.4 11.3 315 11.8
2009-12-09 07:39:56 51°14.386 2°55.014 314.8 11.3 318 11.5
2009-12-09 07:40:01 51°14.397 2°54.998 317.3 11.2 319 11.6
2009-12-09 07:40:06 51°14.409 2°54.982 318.9 11.3 322 11.5
2009-12-09 07:40:11 51°14.421 2°54.968 321 11.3 324 11.7
2009-12-09 07:40:16 51°14.434 2°54.954 323.5 11.3 327 12
2009-12-09 07:40:21 51°14.448 2°54.941 325 11.4 329 11.7
2009-12-09 07:40:26 51°14.461 2°54.929 325.9 11.3 330 11.9
2009-12-09 07:40:31 51°14.475 2°54.918 327.6 11.4 334 12.2
2009-12-09 07:40:36 51°14.49 2°54.907 330.3 11.4 336 11.9
2009-12-09 07:40:41 51°14.505 2°54.897 331.5 11.4 336 11.8
2009-12-09 07:40:46 51°14.52 2°54.886 331.5 11.4 336 11.9
2009-12-09 07:40:51 51°14.535 2°54.877 332 11.4 337 11.8
2009-12-09 07:40:56 51°14.549 2°54.866 331.1 11.4 334 11.6
2009-12-09 07:41:01 51°14.563 2°54.856 330.5 11.4 336 11.5
2009-12-09 07:41:06 51°14.577 2°54.844 329.9 11.4 333 11.4
2009-12-09 07:41:11 51°14.591 2°54.833 329 11.4 334 11.4
2009-12-09 07:41:16 51°14.606 2°54.822 329.2 11.4 334 11.4
2009-12-09 07:41:21 51°14.62 2°54.811 329.2 11.4 333 11.5
2009-12-09 07:41:25 51°14.631 2°54.801 328.3 11.4 332 11.4
2009-12-09 07:41:31 51°14.648 2°54.788 327.9 11.4 332 11.3
2009-12-09 07:41:36 51°14.661 2°54.776 327.4 11.4 332 11.2
2009-12-09 07:41:41 51°14.676 2°54.764 326.9 11.4 332 11.3
2009-12-09 07:41:46 51°14.69 2°54.752 326.3 11.4 331 11.4
2009-12-09 07:41:51 51°14.704 2°54.739 326 11.4 331 11.5
2009-12-09 07:41:56 51°14.717 2°54.726 325.8 11.4 330 11.2
2009-12-09 07:42:01 51°14.731 2°54.714 325.7 11.4 330 11.3
2009-12-09 07:42:06 51°14.745 2°54.701 325.6 11.4 331 11.3
2009-12-09 07:42:11 51°14.758 2°54.689 325.6 11.4 330 11.3
2009-12-09 07:42:16 51°14.772 2°54.676 325.9 11.4 330 11.3
2009-12-09 07:42:21 51°14.786 2°54.664 325.9 11.5 330 11.4
2009-12-09 07:42:25 51°14.796 2°54.653 325.5 11.5 329 11.2
2009-12-09 07:42:31 51°14.813 2°54.638 325.2 11.4 329 11.2
2009-12-09 07:42:36 51°14.826 2°54.625 325.3 11.4 330 11.2
2009-12-09 07:42:41 51°14.84 2°54.612 325.3 11.4 330 11.5
2009-12-09 07:42:46 51°14.854 2°54.6 326 11.5 331 11.1
2009-12-09 07:42:51 51°14.867 2°54.587 325.5 11.4 329 11.3
2009-12-09 07:42:56 51°14.88 2°54.574 325.4 11.5 331 11.4
2009-12-09 07:43:01 51°14.894 2°54.562 325.5 11.5 330 11.4
2009-12-09 07:43:06 51°14.908 2°54.549 325.8 11.5 331 11.8
2009-12-09 07:43:11 51°14.922 2°54.537 326 11.5 330 11.6
2009-12-09 07:43:16 51°14.936 2°54.524 325.7 11.5 330 11.6
2009-12-09 07:43:21 51°14.949 2°54.511 325.2 11.5 330 11.7
2009-12-09 07:43:26 51°14.963 2°54.499 325.4 11.5 330 11.7
2009-12-09 07:43:31 51°14.977 2°54.486 325.5 11.5 329 11.6
2009-12-09 07:43:36 51°14.991 2°54.473 325.2 11.5 329 11.8
2009-12-09 07:43:41 51°15.005 2°54.46 325.1 11.5 329 11.8
2009-12-09 07:43:45 51°15.016 2°54.45 325.1 11.5 329 12
2009-12-09 07:43:51 51°15.032 2°54.434 325.7 11.5 330 12
2009-12-09 07:43:56 51°15.046 2°54.421 325.2 11.6 328 11.8
2009-12-09 07:44:01 51°15.06 2°54.408 325.4 11.5 330 11.7
2009-12-09 07:44:06 51°15.074 2°54.395 325.4 11.5 329 12
2009-12-09 07:44:11 51°15.087 2°54.382 325.4 11.5 329 12.2
2009-12-09 07:44:16 51°15.101 2°54.369 325.3 11.5 329 11.8
2009-12-09 07:44:21 51°15.115 2°54.356 325.4 11.5 329 12.1
2009-12-09 07:44:26 51°15.128 2°54.343 325.2 11.5 328 12.1
2009-12-09 07:44:31 51°15.142 2°54.33 325.2 11.5 329 12
2009-12-09 07:44:37 51°15.158 2°54.314 325.2 11.5 328 12.1
2009-12-09 07:44:41 51°15.169 2°54.303 325.2 11.5 328 12.1
2009-12-09 07:44:46 51°15.182 2°54.289 325.2 11.5 328 12.2
2009-12-09 07:44:51 51°15.195 2°54.276 325.2 11.5 328 12.2
2009-12-09 07:44:56 51°15.209 2°54.262 325.1 11.5 328 12.2
2009-12-09 07:45:01 51°15.222 2°54.248 324.7 11.5 327 12.2
2009-12-09 07:45:05 51°15.234 2°54.238 325.3 11.5 329 12
2009-12-09 07:45:11 51°15.25 2°54.222 325.6 11.5 328 11.9
2009-12-09 07:45:16 51°15.264 2°54.209 325.6 11.4 328 11.9
2009-12-09 07:45:21 51°15.277 2°54.195 325.2 11.4 328 11.9
2009-12-09 07:45:26 51°15.291 2°54.183 326.1 11.5 330 12
2009-12-09 07:45:31 51°15.305 2°54.169 326.2 11.5 328 11.7
2009-12-09 07:45:36 51°15.319 2°54.157 326.1 11.5 331 11.6
2009-12-09 07:45:41 51°15.333 2°54.144 327.1 11.5 331 11.5
2009-12-09 07:45:46 51°15.346 2°54.132 327.1 11.4 329 11.2
2009-12-09 07:45:51 51°15.36 2°54.119 326.4 11.4 329 11.3
2009-12-09 07:45:56 51°15.374 2°54.106 326.4 11.5 330 11.4
2009-12-09 07:46:01 51°15.388 2°54.093 326.9 11.5 330 11.6
2009-12-09 07:46:06 51°15.402 2°54.081 327.3 11.5 331 11.5
2009-12-09 07:46:11 51°15.416 2°54.068 327.4 11.5 330 11.7
2009-12-09 07:46:16 51°15.43 2°54.056 327.6 11.5 331 11.5
2009-12-09 07:46:21 51°15.444 2°54.043 327.5 11.5 330 11.5
2009-12-09 07:46:26 51°15.458 2°54.031 327.5 11.5 331 11.5
2009-12-09 07:46:31 51°15.472 2°54.018 327.4 11.5 330 11.7
2009-12-09 07:46:36 51°15.486 2°54.006 327.3 11.6 331 11.7
2009-12-09 07:46:41 51°15.5 2°53.994 327.8 11.6 331 11.5
2009-12-09 07:46:45 51°15.512 2°53.984 327.8 11.5 330 11.6
2009-12-09 07:46:51 51°15.528 2°53.969 327.4 11.5 331 12
2009-12-09 07:46:56 51°15.542 2°53.957 327.7 11.5 331 11.9
2009-12-09 07:47:01 51°15.556 2°53.944 327.6 11.5 331 11.8
2009-12-09 07:47:06 51°15.57 2°53.932 327.5 11.5 330 11.9
2009-12-09 07:47:11 51°15.584 2°53.919 327.2 11.5 330 11.9
2009-12-09 07:47:16 51°15.598 2°53.907 327.7 11.5 332 12.1
2009-12-09 07:47:21 51°15.612 2°53.894 327.8 11.6 329 12.3
2009-12-09 07:47:26 51°15.626 2°53.882 327.7 11.6 332 12.4
2009-12-09 07:47:31 51°15.64 2°53.869 328 11.7 331 12.3
2009-12-09 07:47:36 51°15.655 2°53.857 328.2 11.7 331 12.4
2009-12-09 07:47:41 51°15.669 2°53.844 327.9 11.6 331 12.5
2009-12-09 07:47:46 51°15.683 2°53.832 327.6 11.7 331 12.4
2009-12-09 07:47:51 51°15.697 2°53.82 327.5 11.7 331 12.4
2009-12-09 07:47:56 51°15.711 2°53.807 327.4 11.7 331 12.4
2009-12-09 07:48:01 51°15.726 2°53.795 327.5 11.7 331 12.7
2009-12-09 07:48:05 51°15.737 2°53.784 327.2 11.7 331 12.5
2009-12-09 07:48:11 51°15.754 2°53.77 327.6 11.7 332 12.7
2009-12-09 07:48:16 51°15.768 2°53.757 327.4 11.7 331 12.7
2009-12-09 07:48:21 51°15.783 2°53.745 327.2 11.7 331 12.8
2009-12-09 07:48:26 51°15.797 2°53.732 327.3 11.8 332 13
2009-12-09 07:48:31 51°15.811 2°53.72 327.4 11.7 332 12.7
2009-12-09 07:48:36 51°15.825 2°53.708 327.5 11.6 331 12.7
2009-12-09 07:48:41 51°15.84 2°53.696 327.3 11.7 332 13
2009-12-09 07:48:46 51°15.854 2°53.684 327.7 11.7 332 12.8
2009-12-09 07:48:51 51°15.868 2°53.672 327.6 11.6 332 12.9
2009-12-09 07:48:57 51°15.886 2°53.657 327.6 11.7 333 13.3
2009-12-09 07:49:01 51°15.897 2°53.648 327.6 11.6 332 12.9
2009-12-09 07:49:06 51°15.911 2°53.636 327.4 11.7 332 12.9
2009-12-09 07:49:11 51°15.926 2°53.624 327.2 11.6 332 12.8
2009-12-09 07:49:16 51°15.939 2°53.612 327.3 11.5 332 13
2009-12-09 07:49:21 51°15.954 2°53.599 327.7 11.5 331 13.2
2009-12-09 07:49:25 51°15.965 2°53.589 327.1 11.5 330 13.2
2009-12-09 07:49:31 51°15.981 2°53.574 326.9 11.5 331 13.1
2009-12-09 07:49:36 51°15.995 2°53.562 327.4 11.6 331 13.1
2009-12-09 07:49:41 51°16.009 2°53.55 327.4 11.6 331 12.9
2009-12-09 07:49:46 51°16.023 2°53.537 327.3 11.6 330 13.1
2009-12-09 07:49:51 51°16.037 2°53.525 326.7 11.6 331 13
2009-12-09 07:49:56 51°16.051 2°53.512 326.9 11.6 331 13
2009-12-09 07:50:01 51°16.066 2°53.5 327.5 11.6 331 13
2009-12-09 07:50:06 51°16.08 2°53.488 327.1 11.6 331 13.3
2009-12-09 07:50:11 51°16.094 2°53.475 326.7 11.6 330 13.2
2009-12-09 07:50:16 51°16.107 2°53.462 326.3 11.5 330 13.2
2009-12-09 07:50:21 51°16.121 2°53.45 325.8 11.5 330 13.3
2009-12-09 07:50:26 51°16.135 2°53.437 325.4 11.6 330 13.3
2009-12-09 07:50:31 51°16.149 2°53.424 325.6 11.6 331 13.3
2009-12-09 07:50:36 51°16.163 2°53.411 326.1 11.6 330 13.1
2009-12-09 07:50:41 51°16.177 2°53.399 326.5 11.6 331 13.4
2009-12-09 07:50:46 51°16.191 2°53.387 327.2 11.6 332 13.3
2009-12-09 07:50:51 51°16.206 2°53.375 327.3 11.6 331 13.1
2009-12-09 07:50:56 51°16.22 2°53.363 327.4 11.6 332 13.2
2009-12-09 07:51:01 51°16.234 2°53.351 327.4 11.5 331 13.4
2009-12-09 07:51:06 51°16.248 2°53.339 327.6 11.6 332 13.6
2009-12-09 07:51:11 51°16.262 2°53.327 327.9 11.6 332 13.5
2009-12-09 07:51:16 51°16.276 2°53.315 327.6 11.5 332 13.3
2009-12-09 07:51:21 51°16.29 2°53.303 327.6 11.5 332 13.6
2009-12-09 07:51:26 51°16.305 2°53.291 327.7 11.6 332 13.5
2009-12-09 07:51:31 51°16.319 2°53.279 327.7 11.5 332 13.3
2009-12-09 07:51:36 51°16.333 2°53.267 327.9 11.5 332 13.4
2009-12-09 07:51:41 51°16.347 2°53.255 327.8 11.6 332 13.6
2009-12-09 07:51:46 51°16.361 2°53.243 327.5 11.6 332 13.4
2009-12-09 07:51:51 51°16.375 2°53.231 327.4 11.6 332 13.5
2009-12-09 07:51:56 51°16.39 2°53.219 327.6 11.6 332 13.8
2009-12-09 07:52:01 51°16.404 2°53.207 327.5 11.6 332 13.5
2009-12-09 07:52:06 51°16.418 2°53.195 327.5 11.5 332 13.3
2009-12-09 07:52:11 51°16.432 2°53.183 327.4 11.6 332 13.5
2009-12-09 07:52:16 51°16.447 2°53.171 327.5 11.6 333 13.6
2009-12-09 07:52:21 51°16.461 2°53.16 328 11.6 333 13.5
2009-12-09 07:52:26 51°16.475 2°53.147 327.4 11.5 331 13.4
2009-12-09 07:52:31 51°16.49 2°53.135 327.8 11.6 333 13.2
2009-12-09 07:52:36 51°16.504 2°53.123 327.5 11.6 331 13.3
2009-12-09 07:52:41 51°16.518 2°53.111 327.4 11.6 333 13.2
2009-12-09 07:52:46 51°16.532 2°53.099 327.4 11.5 332 13.1
2009-12-09 07:52:51 51°16.546 2°53.088 327.6 11.6 333 13.4
2009-12-09 07:52:56 51°16.561 2°53.076 327.7 11.6 332 13.3
2009-12-09 07:53:01 51°16.575 2°53.064 327.4 11.6 332 13.3
2009-12-09 07:53:06 51°16.589 2°53.052 327.4 11.6 332 13.2
2009-12-09 07:53:11 51°16.603 2°53.04 327.5 11.6 332 12.9
2009-12-09 07:53:16 51°16.617 2°53.029 327.3 11.6 332 12.9
2009-12-09 07:53:21 51°16.632 2°53.017 327.4 11.6 332 12.9
2009-12-09 07:53:26 51°16.646 2°53.005 327.4 11.6 332 12.9
2009-12-09 07:53:31 51°16.66 2°52.993 327.5 11.7 332 12.9
2009-12-09 07:53:36 51°16.674 2°52.981 327.5 11.6 332 12.7
2009-12-09 07:53:41 51°16.689 2°52.97 327.4 11.6 332 12.7
2009-12-09 07:53:46 51°16.703 2°52.958 327.4 11.6 333 12.4
2009-12-09 07:53:51 51°16.717 2°52.945 327.7 11.6 332 12.3
2009-12-09 07:53:56 51°16.732 2°52.933 327.4 11.5 332 12.4
2009-12-09 07:54:01 51°16.746 2°52.922 327.8 11.5 333 12.5
2009-12-09 07:54:06 51°16.76 2°52.909 327.4 11.5 331 11.8
2009-12-09 07:54:11 51°16.774 2°52.898 327.3 11.5 333 11.3
2009-12-09 07:54:16 51°16.788 2°52.885 327.6 11.4 331 11.2
2009-12-09 07:54:21 51°16.803 2°52.873 327.6 11.5 332 11.1
2009-12-09 07:54:26 51°16.817 2°52.861 327.5 11.5 331 11
2009-12-09 07:54:31 51°16.831 2°52.849 327.4 11.5 331 10.8
2009-12-09 07:54:36 51°16.845 2°52.836 327 11.5 331 10.8
2009-12-09 07:54:41 51°16.859 2°52.824 327.1 11.6 331 10.7
2009-12-09 07:54:46 51°16.873 2°52.812 327.4 11.5 331 10.4
2009-12-09 07:54:51 51°16.887 2°52.8 327.4 11.5 331 10.8
2009-12-09 07:54:56 51°16.901 2°52.788 328 11.6 332 10.7
2009-12-09 07:55:01 51°16.915 2°52.775 327.5 11.6 331 10.6
2009-12-09 07:55:06 51°16.93 2°52.763 327.5 11.6 333 10.9
2009-12-09 07:55:11 51°16.944 2°52.751 328 11.7 332 11.2
2009-12-09 07:55:16 51°16.958 2°52.739 327.9 11.7 332 10.9
2009-12-09 07:55:21 51°16.973 2°52.727 327.7 11.7 332 11
2009-12-09 07:55:26 51°16.987 2°52.715 327.9 11.7 332 11.3
2009-12-09 07:55:31 51°17.001 2°52.703 327.7 11.7 331 11.2
2009-12-09 07:55:36 51°17.015 2°52.69 327.4 11.7 332 11.3
2009-12-09 07:55:41 51°17.03 2°52.678 327.5 11.7 332 11.5
2009-12-09 07:55:46 51°17.044 2°52.665 327.5 11.7 331 11.4
2009-12-09 07:55:51 51°17.058 2°52.653 327.3 11.8 332 11.1
2009-12-09 07:55:56 51°17.072 2°52.641 327.3 11.7 332 11.2
2009-12-09 07:56:01 51°17.087 2°52.629 327.8 11.6 332 11.2
2009-12-09 07:56:06 51°17.101 2°52.616 327.3 11.7 331 11
2009-12-09 07:56:11 51°17.115 2°52.603 327.1 11.6 332 10.8
2009-12-09 07:56:16 51°17.129 2°52.591 327.1 11.7 331 11.1
2009-12-09 07:56:21 51°17.143 2°52.578 327.2 11.6 331 11
2009-12-09 07:56:26 51°17.157 2°52.566 326.9 11.7 331 11.4
2009-12-09 07:56:31 51°17.172 2°52.553 327.3 11.7 332 11.3
2009-12-09 07:56:36 51°17.186 2°52.541 326.9 11.7 331 11.2
2009-12-09 07:56:41 51°17.2 2°52.528 327.2 11.7 332 11.2
2009-12-09 07:56:46 51°17.214 2°52.516 327.1 11.7 331 11.3
2009-12-09 07:56:51 51°17.228 2°52.503 326.9 11.7 331 11.5
2009-12-09 07:56:56 51°17.242 2°52.491 327.2 11.7 331 11.4
2009-12-09 07:57:01 51°17.257 2°52.478 326.8 11.7 331 11.5
2009-12-09 07:57:06 51°17.271 2°52.466 327 11.8 331 11.5
2009-12-09 07:57:11 51°17.285 2°52.453 326.8 11.7 331 11.6
2009-12-09 07:57:16 51°17.299 2°52.44 327.2 11.7 331 11.5
2009-12-09 07:57:21 51°17.314 2°52.428 327.3 11.7 331 12
2009-12-09 07:57:26 51°17.328 2°52.415 327.3 11.7 331 11.7
2009-12-09 07:57:31 51°17.342 2°52.403 327.3 11.6 332 11.7
2009-12-09 07:57:36 51°17.356 2°52.391 327.3 11.7 331 11.9
2009-12-09 07:57:41 51°17.371 2°52.378 327.2 11.7 331 11.9
2009-12-09 07:57:46 51°17.385 2°52.366 327.2 11.7 331 11.8
2009-12-09 07:57:51 51°17.399 2°52.353 327.3 11.7 332 11.5
2009-12-09 07:57:56 51°17.413 2°52.341 327.3 11.7 331 11.7
2009-12-09 07:58:01 51°17.427 2°52.328 327.1 11.7 331 11.9
2009-12-09 07:58:06 51°17.442 2°52.316 327 11.7 331 11.7
2009-12-09 07:58:11 51°17.456 2°52.304 327.1 11.7 332 11.8
2009-12-09 07:58:16 51°17.47 2°52.291 327.5 11.7 331 11.8
2009-12-09 07:58:21 51°17.485 2°52.278 327.3 11.8 331 11.8
2009-12-09 07:58:26 51°17.499 2°52.266 327.3 11.7 331 12
2009-12-09 07:58:31 51°17.513 2°52.253 327.2 11.8 331 12.4
2009-12-09 07:58:36 51°17.527 2°52.241 327 11.8 331 12.6
2009-12-09 07:58:41 51°17.542 2°52.228 327.1 11.7 331 12.6
2009-12-09 07:58:46 51°17.556 2°52.215 327.1 11.8 331 12.7
2009-12-09 07:58:51 51°17.57 2°52.202 326.9 11.8 330 12.5
2009-12-09 07:58:56 51°17.585 2°52.19 327.2 11.8 332 12.7
2009-12-09 07:59:01 51°17.598 2°52.177 327.3 11.8 330 12.7
2009-12-09 07:59:06 51°17.613 2°52.164 326.8 11.8 331 12.7
2009-12-09 07:59:11 51°17.627 2°52.152 327 11.8 331 12.6
2009-12-09 07:59:16 51°17.642 2°52.139 327.4 11.8 332 12.4
2009-12-09 07:59:21 51°17.656 2°52.127 327.4 11.8 331 12.5
2009-12-09 07:59:26 51°17.67 2°52.114 327.4 11.8 331 12.6
2009-12-09 07:59:31 51°17.684 2°52.101 327.2 11.7 330 12.6
2009-12-09 07:59:36 51°17.699 2°52.089 327.6 11.7 332 12.7
2009-12-09 07:59:41 51°17.713 2°52.076 326.8 11.8 330 12.4
2009-12-09 07:59:46 51°17.727 2°52.063 326.7 11.7 331 12.6
2009-12-09 07:59:51 51°17.741 2°52.051 327.6 11.7 332 12.6
2009-12-09 07:59:56 51°17.755 2°52.038 326.7 11.7 330 12.3
2009-12-09 08:00:01 51°17.769 2°52.026 326.8 11.7 331 12.2
2009-12-09 08:00:06 51°17.784 2°52.013 327.4 11.7 331 12.3
2009-12-09 08:00:11 51°17.798 2°52 327.4 11.7 331 11.6
2009-12-09 08:00:16 51°17.812 2°51.988 327.3 11.8 332 11.8
2009-12-09 08:00:21 51°17.826 2°51.975 327.3 11.7 330 11.6
2009-12-09 08:00:26 51°17.841 2°51.963 327.6 11.7 333 11.5
2009-12-09 08:00:31 51°17.855 2°51.95 327.4 11.7 330 11.7
2009-12-09 08:00:36 51°17.869 2°51.937 326.9 11.7 330 11.5
2009-12-09 08:00:41 51°17.883 2°51.924 327.1 11.8 332 11.1
2009-12-09 08:00:46 51°17.897 2°51.912 327.8 11.6 332 11.7
2009-12-09 08:00:51 51°17.911 2°51.9 327.4 11.7 331 12
2009-12-09 08:00:56 51°17.925 2°51.887 327.2 11.8 331 11.9
2009-12-09 08:01:01 51°17.94 2°51.875 327.4 11.8 332 11.7
2009-12-09 08:01:06 51°17.954 2°51.862 326.9 11.6 330 11.6
2009-12-09 08:01:11 51°17.968 2°51.849 326.8 11.6 331 11.9
2009-12-09 08:01:16 51°17.982 2°51.837 327.4 11.6 331 11.9
2009-12-09 08:01:21 51°17.997 2°51.825 327.5 11.7 331 12.1
2009-12-09 08:01:26 51°18.011 2°51.812 327.4 11.7 331 11.6
2009-12-09 08:01:31 51°18.025 2°51.799 327.3 11.6 331 12.1
2009-12-09 08:01:36 51°18.039 2°51.787 327.7 11.7 332 12.2
2009-12-09 08:01:41 51°18.053 2°51.774 327.7 11.7 330 12.2
2009-12-09 08:01:46 51°18.068 2°51.762 327.6 11.7 333 11.8
2009-12-09 08:01:51 51°18.082 2°51.749 327.8 11.7 330 12.1
2009-12-09 08:01:56 51°18.096 2°51.737 327.4 11.6 331 12.3
2009-12-09 08:02:01 51°18.11 2°51.726 328.3 11.6 333 12.4
2009-12-09 08:02:06 51°18.124 2°51.713 327.5 11.7 330 12.2
2009-12-09 08:02:11 51°18.139 2°51.701 327.6 11.7 333 12.2
2009-12-09 08:02:16 51°18.153 2°51.688 327.7 11.7 329 12.4
2009-12-09 08:02:21 51°18.167 2°51.676 327.6 11.8 332 12.5
2009-12-09 08:02:26 51°18.181 2°51.663 328.1 11.7 332 12.6
2009-12-09 08:02:31 51°18.196 2°51.651 327.5 11.7 332 12.7
2009-12-09 08:02:36 51°18.21 2°51.639 327.8 11.7 332 12.7
2009-12-09 08:02:41 51°18.224 2°51.626 327.6 11.8 331 12.9
2009-12-09 08:02:46 51°18.238 2°51.614 327.8 11.8 332 13.2
2009-12-09 08:02:51 51°18.253 2°51.601 328 11.8 332 13
2009-12-09 08:02:56 51°18.267 2°51.588 327.6 11.7 331 13
2009-12-09 08:03:01 51°18.281 2°51.576 327.6 11.8 332 13.1
2009-12-09 08:03:06 51°18.295 2°51.564 327.5 11.7 331 13.6
2009-12-09 08:03:11 51°18.31 2°51.551 327.5 11.8 331 13.5
2009-12-09 08:03:16 51°18.324 2°51.539 327.4 11.7 331 13.4
2009-12-09 08:03:21 51°18.338 2°51.526 327.5 11.8 332 13.8
2009-12-09 08:03:26 51°18.353 2°51.513 327.4 11.8 331 13.5
2009-12-09 08:03:31 51°18.367 2°51.501 327.5 11.8 332 13.9
2009-12-09 08:03:36 51°18.381 2°51.489 327.5 11.8 331 14
2009-12-09 08:03:41 51°18.396 2°51.476 327.3 11.8 331 13.6
2009-12-09 08:03:46 51°18.41 2°51.464 327.7 11.7 332 14.2
2009-12-09 08:03:51 51°18.424 2°51.451 327.4 11.7 331 14
2009-12-09 08:03:56 51°18.438 2°51.439 327.1 11.6 331 14.1
2009-12-09 08:04:01 51°18.452 2°51.427 327.5 11.6 331 14.4
2009-12-09 08:04:06 51°18.466 2°51.414 326.3 11.6 330 14.5
2009-12-09 08:04:11 51°18.48 2°51.402 326.7 11.6 332 14.1
2009-12-09 08:04:16 51°18.494 2°51.389 327.1 11.5 330 14.4
2009-12-09 08:04:21 51°18.508 2°51.377 327 11.6 331 14.7
2009-12-09 08:04:26 51°18.522 2°51.364 327.3 11.6 331 14.4
2009-12-09 08:04:31 51°18.537 2°51.352 327.9 11.7 332 14.6
2009-12-09 08:04:36 51°18.551 2°51.339 327.2 11.7 330 15
2009-12-09 08:04:41 51°18.565 2°51.327 327.1 11.7 331 14.9
2009-12-09 08:04:46 51°18.579 2°51.314 327.4 11.7 331 15.1
2009-12-09 08:04:51 51°18.593 2°51.301 327.2 11.8 330 15.2
2009-12-09 08:04:56 51°18.608 2°51.289 326.7 11.8 330 15.1
2009-12-09 08:05:01 51°18.622 2°51.276 326.7 11.7 330 15.2
2009-12-09 08:05:06 51°18.636 2°51.264 327.4 11.8 332 15.1
2009-12-09 08:05:11 51°18.65 2°51.25 327.2 11.7 329 15.2
2009-12-09 08:05:16 51°18.665 2°51.239 327.8 11.8 333 15.2
2009-12-09 08:05:21 51°18.679 2°51.225 326.7 11.7 328 15.3
2009-12-09 08:05:26 51°18.693 2°51.213 326.6 11.8 332 15.5
2009-12-09 08:05:31 51°18.707 2°51.2 326.9 11.8 330 15.6
2009-12-09 08:05:36 51°18.721 2°51.186 326.8 11.8 330 15.6
2009-12-09 08:05:41 51°18.736 2°51.174 327 11.7 331 15.4
2009-12-09 08:05:46 51°18.75 2°51.161 327.2 11.7 330 15.6
2009-12-09 08:05:51 51°18.764 2°51.149 326.9 11.8 331 15.7
2009-12-09 08:05:56 51°18.779 2°51.136 327.3 11.8 332 15.8
2009-12-09 08:06:01 51°18.792 2°51.123 326.8 11.8 330 15.7
2009-12-09 08:06:06 51°18.807 2°51.111 327.2 11.8 332 15.6
2009-12-09 08:06:11 51°18.821 2°51.098 327.1 11.8 330 15.9
2009-12-09 08:06:16 51°18.835 2°51.086 327.4 11.8 332 15.9
2009-12-09 08:06:21 51°18.85 2°51.073 327.2 11.8 331 15.8
2009-12-09 08:06:26 51°18.864 2°51.06 326.7 11.7 330 15.9
2009-12-09 08:06:31 51°18.878 2°51.048 327.3 11.8 332 16.1
2009-12-09 08:06:36 51°18.892 2°51.035 327.3 11.7 331 16.1
2009-12-09 08:06:41 51°18.906 2°51.021 326.7 11.8 329 15.9
2009-12-09 08:06:46 51°18.921 2°51.009 326.2 11.7 331 16.1
2009-12-09 08:06:51 51°18.935 2°50.996 327 11.8 331 16.1
2009-12-09 08:06:56 51°18.949 2°50.983 327.6 11.8 331 16
2009-12-09 08:07:01 51°18.963 2°50.97 326.9 11.7 329 15.9
2009-12-09 08:07:06 51°18.977 2°50.957 326.6 11.8 331 15.8
2009-12-09 08:07:11 51°18.991 2°50.945 326.9 11.7 331 16
2009-12-09 08:07:16 51°19.006 2°50.932 327.2 11.7 330 16.2
2009-12-09 08:07:21 51°19.02 2°50.919 327.2 11.8 330 15.9
2009-12-09 08:07:26 51°19.034 2°50.906 326.4 11.7 331 16
2009-12-09 08:07:31 51°19.048 2°50.894 327.3 11.7 331 15.9
2009-12-09 08:07:36 51°19.062 2°50.881 327.3 11.8 330 16
2009-12-09 08:07:41 51°19.077 2°50.868 327.4 11.8 332 16
2009-12-09 08:07:46 51°19.091 2°50.856 327.5 11.7 331 15.7
2009-12-09 08:07:51 51°19.105 2°50.843 327.4 11.7 331 15.9
2009-12-09 08:07:56 51°19.12 2°50.83 327.8 11.7 331 16
2009-12-09 08:08:01 51°19.134 2°50.818 327.4 11.7 331 15.8
2009-12-09 08:08:06 51°19.148 2°50.805 327.5 11.8 331 15.9
2009-12-09 08:08:11 51°19.162 2°50.793 327.4 11.8 331 15.7
2009-12-09 08:08:16 51°19.177 2°50.78 327.4 11.8 331 15.6
2009-12-09 08:08:21 51°19.191 2°50.767 326.7 11.8 330 15.5
2009-12-09 08:08:26 51°19.205 2°50.755 327.6 11.7 332 15.6
2009-12-09 08:08:31 51°19.219 2°50.742 328 11.7 331 15.7
2009-12-09 08:08:36 51°19.233 2°50.73 327.4 11.7 330 15.4
2009-12-09 08:08:41 51°19.248 2°50.717 327.1 11.7 331 15.4
2009-12-09 08:08:46 51°19.261 2°50.704 326.7 11.6 329 15.3
2009-12-09 08:08:51 51°19.275 2°50.691 326.7 11.7 330 15.3
2009-12-09 08:08:56 51°19.29 2°50.678 326.7 11.7 331 15
2009-12-09 08:09:01 51°19.304 2°50.665 327.4 11.7 331 14.7
2009-12-09 08:09:06 51°19.318 2°50.652 327 11.7 330 14.5
2009-12-09 08:09:11 51°19.332 2°50.64 327.3 11.7 331 14.1
2009-12-09 08:09:16 51°19.346 2°50.627 327.2 11.7 330 14.4
2009-12-09 08:09:21 51°19.36 2°50.614 327.4 11.7 331 13.8
2009-12-09 08:09:26 51°19.374 2°50.602 328 11.6 331 13.9
2009-12-09 08:09:31 51°19.388 2°50.589 327.9 11.7 331 13.9
2009-12-09 08:09:36 51°19.402 2°50.576 327.3 11.6 330 13.8
2009-12-09 08:09:41 51°19.416 2°50.563 327.4 11.6 330 13.9
2009-12-09 08:09:46 51°19.431 2°50.551 327.9 11.8 331 13.9
2009-12-09 08:09:51 51°19.445 2°50.538 327.4 11.7 330 13.6
2009-12-09 08:09:56 51°19.459 2°50.525 327.5 11.7 331 13.5
2009-12-09 08:10:01 51°19.473 2°50.511 327 11.7 329 13.2
2009-12-09 08:10:06 51°19.487 2°50.499 327.1 11.7 331 13.1
2009-12-09 08:10:11 51°19.501 2°50.486 327.2 11.7 329 13.3
2009-12-09 08:10:16 51°19.515 2°50.472 326.9 11.7 330 13.2
2009-12-09 08:10:21 51°19.529 2°50.46 327.1 11.8 330 12.8
2009-12-09 08:10:26 51°19.543 2°50.447 327.3 11.6 330 12.7
2009-12-09 08:10:31 51°19.557 2°50.434 327.1 11.7 330 13.1
2009-12-09 08:10:36 51°19.571 2°50.421 327.4 11.7 331 13.1
2009-12-09 08:10:41 51°19.585 2°50.409 327.4 11.6 330 13.1
2009-12-09 08:10:46 51°19.599 2°50.396 327.5 11.7 330 13
2009-12-09 08:10:51 51°19.613 2°50.383 327.5 11.7 331 13.4
2009-12-09 08:10:56 51°19.627 2°50.37 327.3 11.6 330 13.7
2009-12-09 08:11:01 51°19.641 2°50.357 326.8 11.6 329 13.7
2009-12-09 08:11:06 51°19.655 2°50.343 326 11.6 328 13.8
2009-12-09 08:11:11 51°19.669 2°50.33 325.7 11.6 329 14.2
2009-12-09 08:11:16 51°19.683 2°50.317 326.5 11.7 329 14.4
2009-12-09 08:11:21 51°19.697 2°50.304 326.4 11.7 329 14.4
2009-12-09 08:11:26 51°19.711 2°50.291 327.3 11.8 330 14.6
2009-12-09 08:11:31 51°19.725 2°50.278 327.6 11.7 330 14.4
2009-12-09 08:11:36 51°19.739 2°50.265 327.3 11.7 328 14.6
2009-12-09 08:11:41 51°19.753 2°50.252 327.4 11.7 331 14.8
2009-12-09 08:11:46 51°19.767 2°50.239 327.1 11.7 329 15
2009-12-09 08:11:51 51°19.781 2°50.226 327.2 11.7 330 15
2009-12-09 08:11:56 51°19.795 2°50.213 327.3 11.7 330 15.2
2009-12-09 08:12:01 51°19.809 2°50.2 327 11.8 329 15.3
2009-12-09 08:12:06 51°19.824 2°50.187 327 11.7 331 15.4
2009-12-09 08:12:11 51°19.838 2°50.174 327.7 11.8 331 15.5
2009-12-09 08:12:16 51°19.852 2°50.162 327.4 11.7 330 15.2
2009-12-09 08:12:21 51°19.866 2°50.149 327.4 11.7 330 15.6
2009-12-09 08:12:26 51°19.88 2°50.136 327.6 11.8 331 15.8
2009-12-09 08:12:31 51°19.894 2°50.123 327.6 11.8 331 16
2009-12-09 08:12:36 51°19.908 2°50.111 327.4 11.7 331 16
2009-12-09 08:12:41 51°19.923 2°50.098 327.5 11.7 332 16.3
2009-12-09 08:12:46 51°19.937 2°50.085 327.7 11.8 330 16.3
2009-12-09 08:12:51 51°19.951 2°50.073 327.9 11.7 332 16.5
2009-12-09 08:12:56 51°19.966 2°50.061 327.7 11.7 331 16.8
2009-12-09 08:13:01 51°19.98 2°50.048 327.6 11.7 331 17
2009-12-09 08:13:06 51°19.994 2°50.035 327.3 11.7 331 16.9
2009-12-09 08:13:11 51°20.008 2°50.023 327.4 11.7 331 17
2009-12-09 08:13:16 51°20.022 2°50.01 327.5 11.7 331 17.1
2009-12-09 08:13:21 51°20.037 2°49.998 327.6 11.7 331 17.6
2009-12-09 08:13:26 51°20.051 2°49.986 327.4 11.7 331 18
2009-12-09 08:13:31 51°20.065 2°49.973 327.3 11.8 332 18.1
2009-12-09 08:13:36 51°20.08 2°49.961 327.6 11.7 332 17.9
2009-12-09 08:13:41 51°20.094 2°49.948 327.5 11.7 330 18.5
2009-12-09 08:13:46 51°20.108 2°49.937 327.9 11.7 333 18.6
2009-12-09 08:13:51 51°20.122 2°49.924 327.5 11.7 331 18.8
2009-12-09 08:13:56 51°20.137 2°49.912 327.5 11.7 332 18.7
2009-12-09 08:14:01 51°20.151 2°49.899 327.4 11.7 332 19
2009-12-09 08:14:06 51°20.165 2°49.887 328 11.7 332 19.2
2009-12-09 08:14:11 51°20.18 2°49.875 327.6 11.7 331 19.5
2009-12-09 08:14:16 51°20.194 2°49.863 327.8 11.8 332 19.8
2009-12-09 08:14:21 51°20.208 2°49.85 327.7 11.8 331 19.8
2009-12-09 08:14:26 51°20.223 2°49.838 327.9 11.7 333 20
2009-12-09 08:14:31 51°20.237 2°49.826 328.3 11.6 331 20.3
2009-12-09 08:14:36 51°20.251 2°49.814 327.9 11.7 333 20.9
2009-12-09 08:14:41 51°20.266 2°49.802 327.8 11.7 333 21
2009-12-09 08:14:46 51°20.28 2°49.789 327.4 11.7 332 20.9
2009-12-09 08:14:51 51°20.295 2°49.777 327.3 11.8 333 21.3
2009-12-09 08:14:56 51°20.309 2°49.765 327.3 11.8 331 21.6
2009-12-09 08:15:01 51°20.323 2°49.752 327.2 11.8 331 21.7
2009-12-09 08:15:06 51°20.338 2°49.74 327.6 11.8 333 21.9
2009-12-09 08:15:11 51°20.351 2°49.727 326 11.6 328 22
2009-12-09 08:15:16 51°20.365 2°49.713 324.3 11.6 329 22.3
2009-12-09 08:15:21 51°20.379 2°49.7 323.8 11.7 329 22.5
2009-12-09 08:15:26 51°20.392 2°49.685 322.1 11.6 326 22.7
2009-12-09 08:15:31 51°20.406 2°49.671 321.8 11.7 327 23.2
2009-12-09 08:15:36 51°20.419 2°49.656 321.4 11.6 325 23.2
2009-12-09 08:15:41 51°20.432 2°49.641 320.4 11.7 325 23.1
2009-12-09 08:15:46 51°20.445 2°49.626 319.9 11.7 324 23
2009-12-09 08:15:51 51°20.459 2°49.612 319.8 11.6 326 23.3
2009-12-09 08:15:56 51°20.472 2°49.597 320.2 11.6 325 23.8
2009-12-09 08:16:01 51°20.485 2°49.582 319.8 11.5 325 23.9
2009-12-09 08:16:06 51°20.498 2°49.568 320.2 11.7 326 24
2009-12-09 08:16:11 51°20.511 2°49.553 320 11.6 324 23.8
2009-12-09 08:16:16 51°20.524 2°49.538 319.4 11.6 325 23.7
2009-12-09 08:16:21 51°20.537 2°49.522 319.3 11.6 323 23.7
2009-12-09 08:16:26 51°20.55 2°49.508 319.5 11.6 325 24.1
2009-12-09 08:16:31 51°20.563 2°49.492 319.4 11.6 323 24.2
2009-12-09 08:16:36 51°20.576 2°49.478 319.2 11.6 325 24
2009-12-09 08:16:41 51°20.589 2°49.462 319.2 11.5 323 23.5
2009-12-09 08:16:46 51°20.602 2°49.448 319 11.5 325 24.1
2009-12-09 08:16:51 51°20.615 2°49.433 319.9 11.6 324 24
2009-12-09 08:16:56 51°20.628 2°49.418 319.8 11.5 326 23.8
2009-12-09 08:17:01 51°20.641 2°49.403 319.7 11.5 324 24.2
2009-12-09 08:17:06 51°20.654 2°49.388 319.4 11.6 325 23.7
2009-12-09 08:17:11 51°20.667 2°49.374 319.4 11.5 325 23.7
2009-12-09 08:17:16 51°20.68 2°49.359 319.6 11.5 324 23.8
2009-12-09 08:17:21 51°20.693 2°49.344 319.5 11.5 324 23.5
2009-12-09 08:17:26 51°20.706 2°49.329 318.8 11.5 323 23.7
2009-12-09 08:17:31 51°20.719 2°49.314 318.9 11.4 325 24
2009-12-09 08:17:36 51°20.732 2°49.299 319.8 11.4 324 23.8
2009-12-09 08:17:41 51°20.745 2°49.284 319.5 11.5 324 24.2
2009-12-09 08:17:46 51°20.758 2°49.269 319.4 11.4 324 24.3
2009-12-09 08:17:51 51°20.771 2°49.254 319.5 11.6 324 24.1
2009-12-09 08:17:56 51°20.784 2°49.239 319.4 11.6 324 23.9
2009-12-09 08:18:01 51°20.797 2°49.225 319.3 11.6 325 23.9
2009-12-09 08:18:06 51°20.81 2°49.209 319.4 11.6 323 23.9
2009-12-09 08:18:11 51°20.823 2°49.194 319.4 11.6 325 23.9
2009-12-09 08:18:16 51°20.835 2°49.179 319.8 11.6 324 23.3
2009-12-09 08:18:21 51°20.848 2°49.164 320 11.6 325 23.4
2009-12-09 08:18:26 51°20.861 2°49.149 319.9 11.5 323 23.6
2009-12-09 08:18:31 51°20.874 2°49.134 320.1 11.6 324 23.8
2009-12-09 08:18:36 51°20.887 2°49.119 319.7 11.6 323 23.6
2009-12-09 08:18:41 51°20.9 2°49.104 319.3 11.6 324 22.8
2009-12-09 08:18:46 51°20.913 2°49.09 319.9 11.5 326 23.5
2009-12-09 08:18:51 51°20.926 2°49.074 319.9 11.4 323 23.1
2009-12-09 08:18:56 51°20.939 2°49.06 319.4 11.5 324 23
2009-12-09 08:19:01 51°20.952 2°49.045 319.7 11.4 324 22.8
2009-12-09 08:19:06 51°20.964 2°49.029 319.1 11.5 322 22.9
2009-12-09 08:19:11 51°20.977 2°49.014 319.2 11.5 325 22.9
2009-12-09 08:19:16 51°20.99 2°48.999 319.4 11.5 323 22.6
2009-12-09 08:19:21 51°21.002 2°48.984 318.5 11.4 322 22.8
2009-12-09 08:19:26 51°21.015 2°48.968 318.6 11.5 323 22.4
2009-12-09 08:19:31 51°21.028 2°48.953 318.3 11.4 322 22.7
2009-12-09 08:19:36 51°21.041 2°48.938 318.8 11.5 324 22.5
2009-12-09 08:19:41 51°21.054 2°48.923 319.5 11.5 325 22.1
2009-12-09 08:19:46 51°21.066 2°48.907 319.5 11.5 324 21.7
2009-12-09 08:19:51 51°21.079 2°48.893 320.2 11.4 324 21.9
2009-12-09 08:19:56 51°21.092 2°48.878 320.3 11.4 323 22.2
2009-12-09 08:20:01 51°21.105 2°48.863 320.9 11.5 326 21.8
2009-12-09 08:20:06 51°21.117 2°48.848 320.1 11.5 323 22.1
2009-12-09 08:20:11 51°21.131 2°48.834 320.7 11.5 326 22
2009-12-09 08:20:16 51°21.144 2°48.819 320.6 11.6 323 21.8
2009-12-09 08:20:21 51°21.157 2°48.804 320.4 11.6 324 21.7
2009-12-09 08:20:26 51°21.17 2°48.789 320.8 11.5 324 21.8
2009-12-09 08:20:31 51°21.183 2°48.774 320.9 11.6 325 21.9
2009-12-09 08:20:36 51°21.196 2°48.759 321.2 11.6 326 22.1
2009-12-09 08:20:41 51°21.209 2°48.744 321 11.6 325 22
2009-12-09 08:20:46 51°21.222 2°48.73 321 11.5 325 21.5
2009-12-09 08:20:51 51°21.235 2°48.714 320.1 11.5 322 22.2
2009-12-09 08:20:56 51°21.248 2°48.7 320.3 11.5 325 22.1
2009-12-09 08:21:01 51°21.261 2°48.685 320.7 11.6 324 22
2009-12-09 08:21:06 51°21.274 2°48.67 320.3 11.5 323 22.1
2009-12-09 08:21:11 51°21.287 2°48.655 320.3 11.5 325 22.3
2009-12-09 08:21:16 51°21.3 2°48.64 320.8 11.4 324 22.1
2009-12-09 08:21:21 51°21.313 2°48.626 320.8 11.5 325 22.2
2009-12-09 08:21:26 51°21.325 2°48.611 320.6 11.4 323 22.2
2009-12-09 08:21:31 51°21.338 2°48.596 320.3 11.5 324 22.3
2009-12-09 08:21:36 51°21.351 2°48.581 321.3 11.5 325 22.3
2009-12-09 08:21:41 51°21.364 2°48.566 320.5 11.5 322 22.3
2009-12-09 08:21:46 51°21.377 2°48.55 320 11.5 324 22.7
2009-12-09 08:21:51 51°21.39 2°48.535 320.2 11.6 324 22.8
2009-12-09 08:21:56 51°21.403 2°48.52 319.9 11.6 323 22.9
2009-12-09 08:22:01 51°21.415 2°48.505 320 11.5 324 22.7
2009-12-09 08:22:06 51°21.428 2°48.489 320.2 11.5 323 22.9
2009-12-09 08:22:11 51°21.441 2°48.474 320.1 11.5 323 23.3
2009-12-09 08:22:16 51°21.453 2°48.459 319.3 11.4 323 23.4
2009-12-09 08:22:21 51°21.467 2°48.445 320 11.4 326 23.8
2009-12-09 08:22:26 51°21.479 2°48.429 319.8 11.5 322 23.7
2009-12-09 08:22:31 51°21.492 2°48.414 320 11.6 324 23.8
2009-12-09 08:22:36 51°21.505 2°48.399 320.1 11.5 324 23.7
2009-12-09 08:22:41 51°21.518 2°48.384 320.2 11.5 323 24.1
2009-12-09 08:22:46 51°21.531 2°48.369 320.6 11.6 325 23.8
2009-12-09 08:22:51 51°21.544 2°48.354 320.9 11.4 323 23.7
2009-12-09 08:22:56 51°21.556 2°48.34 320.1 11.4 325 23.9
2009-12-09 08:23:01 51°21.569 2°48.325 320.5 11.5 325 24
2009-12-09 08:23:06 51°21.582 2°48.31 320.2 11.4 324 24.2
2009-12-09 08:23:11 51°21.595 2°48.295 320.7 11.6 325 24.6
2009-12-09 08:23:16 51°21.608 2°48.28 320.6 11.5 324 24.2
2009-12-09 08:23:21 51°21.621 2°48.265 320.7 11.5 323 24.1
2009-12-09 08:23:26 51°21.633 2°48.25 320 11.5 322 24
2009-12-09 08:23:31 51°21.647 2°48.235 319.9 11.6 324 24.2
2009-12-09 08:23:36 51°21.659 2°48.219 320.2 11.4 324 23.9
2009-12-09 08:23:41 51°21.672 2°48.204 319.8 11.4 324 24.5
2009-12-09 08:23:46 51°21.685 2°48.189 320.1 11.6 324 24.4
2009-12-09 08:23:51 51°21.698 2°48.174 320.5 11.5 324 23.9
2009-12-09 08:23:56 51°21.711 2°48.159 320.6 11.5 324 23.7
2009-12-09 08:24:01 51°21.724 2°48.144 320.2 11.4 324 24.2
2009-12-09 08:24:06 51°21.737 2°48.13 320.5 11.5 325 24.2
2009-12-09 08:24:11 51°21.749 2°48.114 319.8 11.4 322 24.1
2009-12-09 08:24:16 51°21.762 2°48.099 319.5 11.4 325 24.3
2009-12-09 08:24:21 51°21.775 2°48.084 320.2 11.4 323 24.3
2009-12-09 08:24:26 51°21.788 2°48.069 320.5 11.5 324 24.4
2009-12-09 08:24:31 51°21.801 2°48.054 320.4 11.5 323 24.1
2009-12-09 08:24:36 51°21.814 2°48.039 320.3 11.4 324 24.4
2009-12-09 08:24:41 51°21.827 2°48.025 321.1 11.5 325 24.4
2009-12-09 08:24:46 51°21.84 2°48.01 320.2 11.5 324 24.7
2009-12-09 08:24:51 51°21.852 2°47.995 320.2 11.5 324 24.5
2009-12-09 08:24:56 51°21.865 2°47.98 320.4 11.5 323 24.7
2009-12-09 08:25:01 51°21.878 2°47.965 320.2 11.5 324 24.5
2009-12-09 08:25:06 51°21.891 2°47.95 320.3 11.5 324 24.8
2009-12-09 08:25:11 51°21.904 2°47.935 320.6 11.6 324 24.6
2009-12-09 08:25:16 51°21.917 2°47.92 320.4 11.6 324 24.8
2009-12-09 08:25:21 51°21.93 2°47.905 320.7 11.6 326 24.5
2009-12-09 08:25:26 51°21.943 2°47.89 320 11.4 322 24.8
2009-12-09 08:25:31 51°21.956 2°47.875 320.6 11.4 325 24.5
2009-12-09 08:25:36 51°21.969 2°47.86 320.8 11.4 323 24.8
2009-12-09 08:25:41 51°21.982 2°47.845 320.1 11.4 323 24.8
2009-12-09 08:25:46 51°21.995 2°47.83 319.4 11.5 324 24.8
2009-12-09 08:25:51 51°22.008 2°47.816 319.8 11.5 325 24.8
2009-12-09 08:25:56 51°22.02 2°47.8 320.7 11.5 323 24.7
2009-12-09 08:26:01 51°22.033 2°47.785 319.8 11.5 322 24.8
2009-12-09 08:26:06 51°22.046 2°47.77 320 11.6 325 25
2009-12-09 08:26:11 51°22.059 2°47.755 320.5 11.5 324 24.7
2009-12-09 08:26:16 51°22.072 2°47.739 319.5 11.5 323 24.8
2009-12-09 08:26:21 51°22.085 2°47.724 320.1 11.5 323 25.1
2009-12-09 08:26:26 51°22.098 2°47.71 320.8 11.7 326 24.7
2009-12-09 08:26:31 51°22.111 2°47.694 320.4 11.4 323 24.2
2009-12-09 08:26:36 51°22.124 2°47.68 320.3 11.4 326 24.4
2009-12-09 08:26:41 51°22.137 2°47.665 320.7 11.4 323 24.6
2009-12-09 08:26:46 51°22.15 2°47.651 320.8 11.4 327 24.2
2009-12-09 08:26:51 51°22.163 2°47.636 321.7 11.4 326 24.2
2009-12-09 08:26:56 51°22.176 2°47.622 320.8 11.4 325 23.9
2009-12-09 08:27:01 51°22.189 2°47.608 320.9 11.4 326 23.7
2009-12-09 08:27:06 51°22.202 2°47.593 320.4 11.5 324 23.5
2009-12-09 08:27:11 51°22.215 2°47.578 319.9 11.4 324 22.6
2009-12-09 08:27:16 51°22.227 2°47.563 319.6 11.4 324 22.5
2009-12-09 08:27:21 51°22.241 2°47.548 320.2 11.5 325 22.2
2009-12-09 08:27:26 51°22.253 2°47.533 320.1 11.5 323 21.3
2009-12-09 08:27:31 51°22.266 2°47.518 319.8 11.5 324 21.7
2009-12-09 08:27:36 51°22.279 2°47.503 320.2 11.6 325 21.8
2009-12-09 08:27:41 51°22.293 2°47.488 320.4 11.5 325 21.6
2009-12-09 08:27:46 51°22.306 2°47.474 320.7 11.6 325 21
2009-12-09 08:27:51 51°22.319 2°47.458 320.3 11.6 324 20.5
2009-12-09 08:27:56 51°22.332 2°47.444 320.3 11.6 325 20
2009-12-09 08:28:01 51°22.345 2°47.429 320.8 11.6 325 19.6
2009-12-09 08:28:06 51°22.358 2°47.414 320.7 11.6 324 19.9
2009-12-09 08:28:11 51°22.371 2°47.399 320 11.7 325 19.5
2009-12-09 08:28:16 51°22.384 2°47.384 320.2 11.6 324 18.8
2009-12-09 08:28:21 51°22.397 2°47.369 320.2 11.5 324 19.2
2009-12-09 08:28:26 51°22.41 2°47.354 320.7 11.7 324 18.7
2009-12-09 08:28:31 51°22.424 2°47.339 320.1 11.7 324 17.7
2009-12-09 08:28:36 51°22.437 2°47.324 319.9 11.6 325 17
2009-12-09 08:28:41 51°22.45 2°47.309 320 11.6 325 16
2009-12-09 08:28:46 51°22.463 2°47.294 319.4 11.6 324 15.2
2009-12-09 08:28:51 51°22.476 2°47.279 319.4 11.6 325 14.7
2009-12-09 08:28:56 51°22.489 2°47.265 320.4 11.6 325 15.3
2009-12-09 08:29:01 51°22.502 2°47.249 319.3 11.5 323 16.1
2009-12-09 08:29:06 51°22.515 2°47.234 318.9 11.6 325 18
2009-12-09 08:29:11 51°22.528 2°47.219 319.1 11.7 325 18.9
2009-12-09 08:29:16 51°22.542 2°47.204 319.4 11.7 324 18.9
2009-12-09 08:29:21 51°22.554 2°47.189 319.2 11.6 323 19.2
2009-12-09 08:29:26 51°22.568 2°47.174 319.9 11.7 326 19.5
2009-12-09 08:29:31 51°22.581 2°47.159 320.2 11.6 323 19.7
2009-12-09 08:29:36 51°22.594 2°47.144 320.3 11.6 325 19.8
2009-12-09 08:29:41 51°22.607 2°47.129 320.9 11.7 326 20.2
2009-12-09 08:29:46 51°22.62 2°47.114 320.3 11.6 323 20.4
2009-12-09 08:29:51 51°22.633 2°47.099 319.6 11.6 325 20.6
2009-12-09 08:29:56 51°22.646 2°47.083 320 11.6 323 21.2
2009-12-09 08:30:01 51°22.66 2°47.069 320.4 11.6 326 20.7
2009-12-09 08:30:06 51°22.672 2°47.053 319.4 11.7 322 21.1
2009-12-09 08:30:11 51°22.685 2°47.038 318.6 11.6 325 21.1
2009-12-09 08:30:16 51°22.699 2°47.023 320.4 11.7 325 20.8
2009-12-09 08:30:21 51°22.711 2°47.007 319.3 11.6 321 20.8
2009-12-09 08:30:26 51°22.724 2°46.993 319.5 11.6 326 20.8
2009-12-09 08:30:31 51°22.737 2°46.978 320.2 11.6 324 20.8
2009-12-09 08:30:36 51°22.75 2°46.963 320.6 11.6 324 20.8
2009-12-09 08:30:41 51°22.764 2°46.948 321.4 11.7 325 20.3
2009-12-09 08:30:46 51°22.776 2°46.931 319.3 11.7 321 18.2
2009-12-09 08:30:51 51°22.789 2°46.916 318.7 11.7 324 18.2
2009-12-09 08:30:56 51°22.802 2°46.9 318.4 11.6 322 18.5
2009-12-09 08:31:01 51°22.815 2°46.884 317.3 11.6 322 19.2
2009-12-09 08:31:06 51°22.827 2°46.868 316.4 11.5 320 19.7
2009-12-09 08:31:11 51°22.84 2°46.851 316.5 11.6 321 20.2
2009-12-09 08:31:16 51°22.851 2°46.834 315.4 11.6 318 20.5
2009-12-09 08:31:21 51°22.864 2°46.818 314.9 11.6 319 20.8
2009-12-09 08:31:26 51°22.876 2°46.8 314.4 11.6 319 21.2
2009-12-09 08:31:31 51°22.888 2°46.784 314.4 11.6 318 22
2009-12-09 08:31:36 51°22.9 2°46.766 314.8 11.6 318 22.4
2009-12-09 08:31:41 51°22.912 2°46.749 314.6 11.6 319 22.5
2009-12-09 08:31:46 51°22.923 2°46.732 313.8 11.5 317 22.6
2009-12-09 08:31:51 51°22.936 2°46.715 313.8 11.6 318 23.4
2009-12-09 08:31:56 51°22.948 2°46.698 314.4 11.5 319 23.1
2009-12-09 08:32:01 51°22.96 2°46.681 314.7 11.6 318 23.3
2009-12-09 08:32:06 51°22.972 2°46.665 314.8 11.5 319 23.5
2009-12-09 08:32:11 51°22.984 2°46.648 315.1 11.4 319 23.6
2009-12-09 08:32:16 51°22.996 2°46.631 315.3 11.4 318 23.6
2009-12-09 08:32:21 51°23.008 2°46.614 315.4 11.5 319 24.6
2009-12-09 08:32:26 51°23.02 2°46.598 315.1 11.5 320 24.7
2009-12-09 08:32:31 51°23.033 2°46.582 315.4 11.5 320 24.9
2009-12-09 08:32:36 51°23.044 2°46.564 314.5 11.5 317 24.9
2009-12-09 08:32:41 51°23.057 2°46.548 314.8 11.5 321 24
2009-12-09 08:32:46 51°23.069 2°46.532 315 11.5 319 22.9
2009-12-09 08:32:51 51°23.081 2°46.514 315.1 11.5 319 23.1
2009-12-09 08:32:56 51°23.093 2°46.498 314.7 11.5 320 22.9
2009-12-09 08:33:01 51°23.105 2°46.481 314.6 11.5 318 22.3
2009-12-09 08:33:06 51°23.117 2°46.464 314.4 11.5 319 22.8
2009-12-09 08:33:11 51°23.129 2°46.448 315 11.4 319 23.3
2009-12-09 08:33:16 51°23.14 2°46.431 315.1 11.5 318 24.7
2009-12-09 08:33:21 51°23.153 2°46.414 315 11.5 320 24.7
2009-12-09 08:33:26 51°23.164 2°46.398 315.6 11.4 318 25.2
2009-12-09 08:33:31 51°23.176 2°46.381 314.8 11.4 318 25.8
2009-12-09 08:33:36 51°23.188 2°46.364 314.4 11.4 318 25.8
2009-12-09 08:33:41 51°23.2 2°46.348 315.6 11.5 320 25.3
2009-12-09 08:33:46 51°23.212 2°46.33 314.6 11.5 317 24
2009-12-09 08:33:51 51°23.225 2°46.314 314.6 11.6 320 23.9
2009-12-09 08:33:56 51°23.236 2°46.297 314.1 11.4 318 24.3
2009-12-09 08:34:01 51°23.248 2°46.28 314.4 11.4 318 25.1
2009-12-09 08:34:06 51°23.26 2°46.263 314.3 11.4 319 25.7
2009-12-09 08:34:11 51°23.272 2°46.247 314.7 11.5 319 26.4
2009-12-09 08:34:16 51°23.284 2°46.23 315.1 11.5 319 26.4
2009-12-09 08:34:21 51°23.296 2°46.213 314.7 11.6 318 26.5
2009-12-09 08:34:26 51°23.308 2°46.196 314.7 11.6 320 26.8
2009-12-09 08:34:31 51°23.321 2°46.179 315.4 11.6 320 26.6
2009-12-09 08:34:36 51°23.332 2°46.162 314.7 11.5 317 26.5
2009-12-09 08:34:41 51°23.344 2°46.145 314.6 11.4 320 26.8
2009-12-09 08:34:46 51°23.356 2°46.129 314.5 11.5 319 24.5
2009-12-09 08:34:51 51°23.368 2°46.111 315.1 11.4 318 24.9
2009-12-09 08:34:56 51°23.38 2°46.095 315.1 11.5 320 26.2
2009-12-09 08:35:01 51°23.392 2°46.078 315.2 11.6 319 26.9
2009-12-09 08:35:06 51°23.405 2°46.062 315.5 11.6 321 26.6
2009-12-09 08:35:11 51°23.417 2°46.045 315.8 11.6 319 26.2
2009-12-09 08:35:16 51°23.429 2°46.029 315.7 11.6 320 26.5
2009-12-09 08:35:21 51°23.441 2°46.012 315.8 11.6 320 26.3
2009-12-09 08:35:26 51°23.454 2°45.996 316.3 11.6 321 27.4
2009-12-09 08:35:31 51°23.466 2°45.979 316.2 11.6 320 27.9
2009-12-09 08:35:36 51°23.478 2°45.962 316.1 11.6 320 27.6
2009-12-09 08:35:41 51°23.491 2°45.946 316.4 11.7 321 27.1
2009-12-09 08:35:46 51°23.502 2°45.929 315.2 11.6 317 27.5
2009-12-09 08:35:51 51°23.515 2°45.912 315.5 11.6 320 27.7
2009-12-09 08:35:56 51°23.527 2°45.896 316 11.7 319 28.4
2009-12-09 08:36:01 51°23.54 2°45.879 315.8 11.6 320 27.9
2009-12-09 08:36:06 51°23.552 2°45.862 315.8 11.6 319 28.1
2009-12-09 08:36:11 51°23.564 2°45.845 315.8 11.6 320 27.5
2009-12-09 08:36:16 51°23.576 2°45.829 315.7 11.6 320 27.6
2009-12-09 08:36:21 51°23.588 2°45.812 315 11.6 318 27.9
2009-12-09 08:36:26 51°23.601 2°45.795 315.5 11.7 321 28.2
2009-12-09 08:36:31 51°23.612 2°45.777 315.1 11.6 317 27.7
2009-12-09 08:36:36 51°23.625 2°45.762 315.1 11.6 321 27.5
2009-12-09 08:36:41 51°23.637 2°45.744 315.7 11.6 319 27.7
2009-12-09 08:36:46 51°23.649 2°45.728 315.3 11.6 320 27.7
2009-12-09 08:36:51 51°23.661 2°45.711 315.8 11.6 319 27.8
2009-12-09 08:36:56 51°23.673 2°45.694 315.6 11.5 318 27.7
2009-12-09 08:37:01 51°23.686 2°45.678 315 11.5 320 28.4
2009-12-09 08:37:06 51°23.698 2°45.661 315.7 11.6 320 27.7
2009-12-09 08:37:11 51°23.71 2°45.644 315.5 11.5 318 27.6
2009-12-09 08:37:16 51°23.722 2°45.628 315.3 11.5 320 27.6
2009-12-09 08:37:21 51°23.734 2°45.611 315.5 11.5 319 28.2
2009-12-09 08:37:26 51°23.746 2°45.594 315.8 11.5 319 27.7
2009-12-09 08:37:31 51°23.758 2°45.578 315.8 11.5 320 27.4
2009-12-09 08:37:36 51°23.77 2°45.561 316 11.5 319 27.7
2009-12-09 08:37:41 51°23.782 2°45.545 315.7 11.4 320 27.7
2009-12-09 08:37:46 51°23.794 2°45.528 315.3 11.5 318 27.6
2009-12-09 08:37:51 51°23.807 2°45.511 315.3 11.5 319 27.2
2009-12-09 08:37:56 51°23.819 2°45.495 315.5 11.6 320 27.5
2009-12-09 08:38:01 51°23.83 2°45.477 314.5 11.5 318 27.9
2009-12-09 08:38:06 51°23.843 2°45.461 314.5 11.5 319 27.6
2009-12-09 08:38:11 51°23.855 2°45.444 314.9 11.6 319 28.1
2009-12-09 08:38:16 51°23.866 2°45.426 314.9 11.5 318 28.2
2009-12-09 08:38:21 51°23.879 2°45.41 315.8 11.6 321 27.8
2009-12-09 08:38:26 51°23.891 2°45.393 315.5 11.5 318 27.7
2009-12-09 08:38:31 51°23.903 2°45.377 315.4 11.5 321 27.9
2009-12-09 08:38:36 51°23.914 2°45.361 316.2 10.8 319 28.2
2009-12-09 08:38:41 51°23.925 2°45.348 315.5 10 321 27.3
2009-12-09 08:38:46 51°23.935 2°45.335 315.6 9 320 26.7
2009-12-09 08:38:51 51°23.944 2°45.324 315.1 8.2 323 26.5
2009-12-09 08:38:56 51°23.953 2°45.315 317 7.6 328 26.4
2009-12-09 08:39:01 51°23.961 2°45.307 322.6 7.1 332 26.7
2009-12-09 08:39:06 51°23.97 2°45.302 327.6 6.6 337 26.4
2009-12-09 08:39:11 51°23.979 2°45.298 332.2 6.3 344 27.3
2009-12-09 08:39:16 51°23.986 2°45.295 337.9 6 348 26.8
2009-12-09 08:39:21 51°23.994 2°45.294 343.5 5.7 351 27.6
2009-12-09 08:39:26 51°24.002 2°45.293 350.6 5.4 359 28.4
2009-12-09 08:39:31 51°24.009 2°45.294 355 5.2 5 27.9
2009-12-09 08:39:36 51°24.016 2°45.296 1.7 5 8 27.8
2009-12-09 08:39:41 51°24.022 2°45.299 6 4.9 11 27.5
2009-12-09 08:39:46 51°24.028 2°45.302 11.4 4.7 16 27.3
2009-12-09 08:39:51 51°24.034 2°45.306 16.5 4.5 21 27
2009-12-09 08:39:56 51°24.04 2°45.311 23.1 4.4 26 25.9
2009-12-09 08:40:01 51°24.045 2°45.315 28.5 4.3 29 27.1
2009-12-09 08:40:06 51°24.049 2°45.321 32.4 4.1 34 27.9
2009-12-09 08:40:11 51°24.054 2°45.326 37.7 4.1 37 27.5
2009-12-09 08:40:16 51°24.058 2°45.332 44.1 3.9 41 27.5
2009-12-09 08:40:21 51°24.062 2°45.338 50 3.8 46 28.1
2009-12-09 08:40:26 51°24.065 2°45.344 53.3 3.7 49 28.1
2009-12-09 08:40:31 51°24.068 2°45.35 59 3.6 53 27.6
2009-12-09 08:40:36 51°24.071 2°45.356 65.5 3.6 55 27.7
2009-12-09 08:40:41 51°24.074 2°45.363 70.3 3.4 57 27.3
2009-12-09 08:40:46 51°24.076 2°45.369 73.3 3.4 61 27.6
2009-12-09 08:40:51 51°24.078 2°45.376 76.9 3.3 61 27.2
2009-12-09 08:40:56 51°24.08 2°45.382 79.8 3.3 65 27.2
2009-12-09 08:41:01 51°24.082 2°45.389 82.8 3.3 66 27.1
2009-12-09 08:41:06 51°24.084 2°45.396 85.7 3.3 70 26.8
2009-12-09 08:41:11 51°24.085 2°45.403 88.5 3.3 71 26.7
2009-12-09 08:41:16 51°24.087 2°45.41 91 3.4 74 26.9
2009-12-09 08:41:21 51°24.088 2°45.417 93.6 3.4 76 27.3
2009-12-09 08:41:26 51°24.089 2°45.425 95.1 3.6 79 27.4
2009-12-09 08:41:31 51°24.09 2°45.434 96.4 3.8 80 27.6
2009-12-09 08:41:36 51°24.09 2°45.442 97.7 4 82 27.6
2009-12-09 08:41:41 51°24.091 2°45.451 98.5 4.1 84 27.6
2009-12-09 08:41:46 51°24.092 2°45.461 99.9 4.2 86 27
2009-12-09 08:41:51 51°24.092 2°45.471 101.3 4.3 89 26.8
2009-12-09 08:41:56 51°24.092 2°45.48 102.1 4.3 92 27.7
2009-12-09 08:42:01 51°24.091 2°45.49 105.9 4.3 92 27.8
2009-12-09 08:42:06 51°24.09 2°45.499 109 4.2 96 27.8
2009-12-09 08:42:11 51°24.09 2°45.508 110.7 4.1 98 27.4
2009-12-09 08:42:16 51°24.089 2°45.517 112.4 4.1 96 28
2009-12-09 08:42:21 51°24.088 2°45.526 112.8 4.1 99 27.1
2009-12-09 08:42:26 51°24.088 2°45.535 112.5 4.1 97 27.4
2009-12-09 08:42:31 51°24.087 2°45.544 112.6 4.1 95 27.7
2009-12-09 08:42:36 51°24.087 2°45.553 111.9 4 94 27.6
2009-12-09 08:42:41 51°24.086 2°45.562 110.6 4 93 27.4
2009-12-09 08:42:46 51°24.086 2°45.571 109.9 3.9 92 27.9
2009-12-09 08:42:51 51°24.086 2°45.579 109 3.8 91 27.5
2009-12-09 08:42:56 51°24.086 2°45.588 108.2 3.8 89 28
2009-12-09 08:43:01 51°24.086 2°45.597 106.9 3.8 89 27.6
2009-12-09 08:43:06 51°24.086 2°45.605 105.9 3.8 87 27.3
2009-12-09 08:43:11 51°24.087 2°45.613 104.8 3.8 87 26.9
2009-12-09 08:43:16 51°24.087 2°45.622 103.6 3.9 84 26.7
2009-12-09 08:43:21 51°24.088 2°45.63 102.6 3.8 85 26.7
2009-12-09 08:43:26 51°24.088 2°45.639 102.2 3.7 84 27.1
2009-12-09 08:43:31 51°24.089 2°45.647 101.3 3.8 80 27.4
2009-12-09 08:43:36 51°24.09 2°45.655 99.5 3.8 82 27.8
2009-12-09 08:43:41 51°24.091 2°45.663 98.4 3.8 81 27.6
2009-12-09 08:43:46 51°24.092 2°45.672 97.4 3.8 81 27.8
2009-12-09 08:43:51 51°24.092 2°45.68 96.9 3.8 81 27.9
2009-12-09 08:43:56 51°24.093 2°45.688 96.8 3.8 79 27.4
2009-12-09 08:44:01 51°24.094 2°45.696 97 3.8 79 26.8
2009-12-09 08:44:06 51°24.095 2°45.705 97 3.7 80 26.6
2009-12-09 08:44:11 51°24.096 2°45.713 97.3 3.7 80 26.9
2009-12-09 08:44:16 51°24.096 2°45.721 98.1 3.7 80 27.3
2009-12-09 08:44:21 51°24.097 2°45.729 98.2 3.7 81 27.4
2009-12-09 08:44:26 51°24.098 2°45.737 98.7 3.6 81 27.9
2009-12-09 08:44:31 51°24.099 2°45.744 98.9 3.6 80 27.7
2009-12-09 08:44:36 51°24.099 2°45.752 98.7 3.6 81 27.5
2009-12-09 08:44:41 51°24.1 2°45.76 99.1 3.6 79 27.7
2009-12-09 08:44:46 51°24.101 2°45.768 99.5 3.6 82 27.8
2009-12-09 08:44:51 51°24.102 2°45.776 99.4 3.6 81 27.2
2009-12-09 08:44:56 51°24.102 2°45.784 99.3 3.6 83 27.3
2009-12-09 08:45:01 51°24.103 2°45.792 99.5 3.6 82 27.6
2009-12-09 08:45:06 51°24.104 2°45.8 99.3 3.6 81 27.6
2009-12-09 08:45:11 51°24.105 2°45.807 99.3 3.6 81 27.7
2009-12-09 08:45:16 51°24.106 2°45.815 99.2 3.6 78 27.8
2009-12-09 08:45:21 51°24.107 2°45.823 98.1 3.6 81 27.6
2009-12-09 08:45:26 51°24.108 2°45.831 97.5 3.6 80 27.7
2009-12-09 08:45:31 51°24.108 2°45.839 97.7 3.6 80 27.8
2009-12-09 08:45:36 51°24.109 2°45.847 97.7 3.6 81 27.6
2009-12-09 08:45:41 51°24.11 2°45.855 97.9 3.6 81 27.5
2009-12-09 08:45:46 51°24.11 2°45.863 98.5 3.6 82 27.7
2009-12-09 08:45:51 51°24.111 2°45.87 99.1 3.6 81 27.7
2009-12-09 08:45:56 51°24.112 2°45.878 99.5 3.6 82 27.6
2009-12-09 08:46:01 51°24.113 2°45.886 99.8 3.5 79 27.6
2009-12-09 08:46:06 51°24.114 2°45.894 99.5 3.5 79 27.5
2009-12-09 08:46:11 51°24.115 2°45.901 98.6 3.5 81 27.7
2009-12-09 08:46:16 51°24.115 2°45.909 98.2 3.5 80 27.9
2009-12-09 08:46:21 51°24.116 2°45.917 98.3 3.5 81 27.9
2009-12-09 08:46:26 51°24.117 2°45.924 98.2 3.5 80 27.9
2009-12-09 08:46:31 51°24.118 2°45.932 98.3 3.5 80 28
2009-12-09 08:46:36 51°24.119 2°45.94 98.5 3.6 81 28.8
2009-12-09 08:46:41 51°24.119 2°45.948 98.5 3.6 81 28.8
2009-12-09 08:46:46 51°24.12 2°45.956 98.9 3.6 80 28.9
2009-12-09 08:46:51 51°24.121 2°45.964 98.3 3.7 81 29
2009-12-09 08:46:56 51°24.122 2°45.972 97.3 3.8 80 29.2
2009-12-09 08:47:01 51°24.123 2°45.98 96.5 3.8 78 28.6
2009-12-09 08:47:06 51°24.124 2°45.989 95.2 3.8 78 28.2
2009-12-09 08:47:11 51°24.125 2°45.996 94.1 3.8 78 28.5
2009-12-09 08:47:16 51°24.127 2°46.005 92.9 3.8 76 29.5
2009-12-09 08:47:21 51°24.128 2°46.013 91.5 3.9 76 29.6
2009-12-09 08:47:26 51°24.13 2°46.021 89.9 3.9 73 30.4
2009-12-09 08:47:31 51°24.131 2°46.029 88.4 3.9 73 30.7
2009-12-09 08:47:36 51°24.133 2°46.038 87 3.9 72 30.6
2009-12-09 08:47:41 51°24.135 2°46.046 85.6 3.9 72 30.9
2009-12-09 08:47:46 51°24.137 2°46.054 84.7 3.9 69 31
2009-12-09 08:47:51 51°24.138 2°46.062 83.3 3.9 69 31.2
2009-12-09 08:47:56 51°24.14 2°46.07 81.5 3.9 70 30.7
2009-12-09 08:48:01 51°24.142 2°46.078 80.4 4 67 30.6
2009-12-09 08:48:06 51°24.144 2°46.086 78.8 4 68 30.4
2009-12-09 08:48:11 51°24.147 2°46.095 77.1 4 64 29.9
2009-12-09 08:48:16 51°24.149 2°46.103 75.9 4 64 29.9
2009-12-09 08:48:21 51°24.152 2°46.111 74.2 4.1 63 29.2
2009-12-09 08:48:26 51°24.155 2°46.118 73 4.1 61 28.5
2009-12-09 08:48:31 51°24.157 2°46.126 72 4.1 61 29.2
2009-12-09 08:48:36 51°24.16 2°46.134 70.5 4.1 60 29.1
2009-12-09 08:48:41 51°24.163 2°46.142 69.4 4.1 59 29
2009-12-09 08:48:46 51°24.166 2°46.15 68.5 4.1 59 29.2
2009-12-09 08:48:51 51°24.17 2°46.157 66.9 4.1 57 28.7
2009-12-09 08:48:56 51°24.173 2°46.165 65.8 4.1 55 27.8
2009-12-09 08:49:01 51°24.176 2°46.172 64.2 4.2 55 26.2
2009-12-09 08:49:06 51°24.18 2°46.18 62.8 4.2 54 27
2009-12-09 08:49:11 51°24.183 2°46.187 62 4.2 53 27.1
2009-12-09 08:49:16 51°24.187 2°46.194 59.8 4.2 51 27.1
2009-12-09 08:49:21 51°24.191 2°46.201 58.3 4.2 50 27.5
2009-12-09 08:49:26 51°24.195 2°46.208 57 4.3 49 27
2009-12-09 08:49:31 51°24.199 2°46.215 55.8 4.3 47 27.5
2009-12-09 08:49:36 51°24.203 2°46.222 53.7 4.3 47 27.7
2009-12-09 08:49:41 51°24.207 2°46.229 52 4.3 45 27.2
2009-12-09 08:49:46 51°24.211 2°46.236 50.9 4.3 44 27.6
2009-12-09 08:49:51 51°24.216 2°46.242 50.1 4.3 45 27.9
2009-12-09 08:49:56 51°24.22 2°46.249 49.8 4.4 43 27.8
2009-12-09 08:50:01 51°24.224 2°46.256 49.5 4.4 44 28.7
2009-12-09 08:50:06 51°24.228 2°46.263 49.3 4.3 45 29
2009-12-09 08:50:11 51°24.233 2°46.269 49.6 4.4 43 29.6
2009-12-09 08:50:16 51°24.238 2°46.276 49.9 4.4 43 30.1
2009-12-09 08:50:21 51°24.242 2°46.282 49.4 4.4 43 30.5
2009-12-09 08:50:26 51°24.246 2°46.289 49 4.4 43 30.8
2009-12-09 08:50:31 51°24.251 2°46.295 48.8 4.4 42 30.8
2009-12-09 08:50:36 51°24.255 2°46.302 48.2 4.4 43 30.9
2009-12-09 08:50:41 51°24.26 2°46.308 47.8 4.3 41 31.1
2009-12-09 08:50:46 51°24.264 2°46.314 47.5 4.3 42 30.8
2009-12-09 08:50:51 51°24.269 2°46.321 47.3 4.4 41 30.3
2009-12-09 08:50:56 51°24.273 2°46.327 47.3 4.4 41 30.5
2009-12-09 08:51:01 51°24.278 2°46.334 46.7 4.3 40 30.3